Time;durP1;ratioP1;P1;durP2;ratioP2;P2;SDS_P1;SDS_P2;PMS_P1;PMS_P2;Temp;Humidity;BMP_temperature;BMP_pressure;BME280_temperature;BME280_humidity;BME280_pressure;Samples;Min_cycle;Max_cycle;Signal;HPM_P1;HPM_P2
2022/12/02 00:03:29;;;;;;;32.45;17.73;;;;;;;3.43;60.04;100425.28;7709167;32;37126;-81
2022/12/02 00:07:46;;;;;;;32.55;18.52;;;;;;;3.12;61.35;100434.84;7709001;32;40167;-81
2022/12/02 00:12:27;;;;;;;37.35;19.52;;;;;;;3.25;60.86;100434.84;7710111;32;40036;-81
2022/12/02 00:16:43;;;;;;;30.23;17.83;;;;;;;3.03;61.13;100430.69;7710015;32;38768;-80
2022/12/02 00:20:59;;;;;;;30.75;17.37;;;;;;;3.07;61.23;100437.31;7709928;32;37268;-82
2022/12/02 00:25:15;;;;;;;32.50;17.08;;;;;;;3.19;60.83;100431.13;7727785;32;40140;-81
2022/12/02 00:29:32;;;;;;;26.45;15.82;;;;;;;3.60;59.46;100421.13;7736584;32;40125;-81
2022/12/02 00:33:48;;;;;;;28.73;14.93;;;;;;;3.04;60.46;100435.06;7736307;32;38695;-81
2022/12/02 00:38:05;;;;;;;29.80;15.55;;;;;;;3.36;59.58;100434.22;7736296;32;37199;-82
2022/12/02 00:42:21;;;;;;;29.35;15.88;;;;;;;3.15;59.75;100437.94;7755512;32;39203;-81
2022/12/02 00:46:38;;;;;;;30.55;17.05;;;;;;;3.27;59.17;100421.16;7762962;32;40679;-81
2022/12/02 00:50:54;;;;;;;30.80;17.37;;;;;;;3.14;59.39;100416.59;7762775;32;38733;-81
2022/12/02 00:55:10;;;;;;;28.12;16.95;;;;;;;3.17;59.68;100418.88;7762333;32;37961;-81
2022/12/02 00:59:26;;;;;;;28.10;16.35;;;;;;;3.28;59.92;100417.44;7762661;32;39233;-81
2022/12/02 01:03:42;;;;;;;32.25;17.67;;;;;;;3.17;59.87;100421.56;7762699;32;40738;-81
2022/12/02 01:08:01;;;;;;;33.15;17.02;;;;;;;2.79;61.17;100427.56;7762482;32;38504;-81
2022/12/02 01:12:17;;;;;;;31.80;16.65;;;;;;;3.06;60.54;100423.03;7762356;32;37193;-81
2022/12/02 01:16:33;;;;;;;32.72;15.88;;;;;;;3.05;60.37;100425.94;7762292;32;40179;-81
2022/12/02 01:20:49;;;;;;;34.33;17.08;;;;;;;2.76;61.54;100433.34;7764902;32;40886;-81
2022/12/02 01:25:06;;;;;;;30.58;17.70;;;;;;;2.71;61.82;100428.59;7766207;32;38197;-81
2022/12/02 01:29:22;;;;;;;28.30;16.17;;;;;;;2.59;62.24;100425.66;7766203;32;37901;-80
2022/12/02 01:33:39;;;;;;;33.33;17.55;;;;;;;2.93;61.62;100414.94;7766201;32;39134;-81
2022/12/02 01:37:55;;;;;;;31.10;16.23;;;;;;;3.16;60.59;100409.16;7766023;32;39665;-81
2022/12/02 01:42:11;;;;;;;29.80;16.30;;;;;;;2.97;61.25;100413.50;7765719;32;38686;-81
2022/12/02 01:46:27;;;;;;;31.95;17.08;;;;;;;3.00;61.47;100421.16;7751756;32;37817;-81
2022/12/02 01:50:44;;;;;;;27.42;16.85;;;;;;;3.33;61.07;100409.56;7765514;32;39394;-81
2022/12/02 01:55:00;;;;;;;31.23;17.05;;;;;;;2.72;63.64;100415.94;7765747;32;38521;-81
2022/12/02 01:59:16;;;;;;;34.22;18.40;;;;;;;3.11;62.11;100401.69;7765779;32;38515;-81
2022/12/02 02:03:33;;;;;;;32.25;17.50;;;;;;;2.80;62.72;100403.13;7766135;32;36858;-81
2022/12/02 02:07:51;;;;;;;34.78;17.20;;;;;;;2.90;62.51;100410.81;7765938;32;39004;-81
2022/12/02 02:12:08;;;;;;;31.55;17.83;;;;;;;2.77;62.10;100410.78;7765866;32;39892;-81
2022/12/02 02:16:24;;;;;;;31.00;16.33;;;;;;;3.00;61.72;100405.84;7765253;32;37549;-82
2022/12/02 02:20:41;;;;;;;31.08;17.40;;;;;;;2.86;62.07;100409.53;7751688;32;37258;-81
2022/12/02 02:24:57;;;;;;;33.58;18.17;;;;;;;2.90;61.81;100405.41;7765120;32;40070;-81
2022/12/02 02:29:13;;;;;;;33.60;17.70;;;;;;;2.57;64.00;100408.91;7754815;32;38836;-81
2022/12/02 02:33:31;;;;;;;29.58;16.50;;;;;;;2.50;64.32;100416.13;7792468;32;37924;-81
2022/12/02 02:37:49;;;;;;;31.77;17.73;;;;;;;2.90;62.78;100413.50;7792528;32;37947;-81
2022/12/02 02:42:06;;;;;;;37.13;17.27;;;;;;;2.66;62.67;100404.16;7779015;32;37434;-81
2022/12/02 02:46:22;;;;;;;33.53;18.58;;;;;;;2.78;62.48;100409.75;7780388;32;40710;-81
2022/12/02 02:50:41;;;;;;;35.80;19.17;;;;;;;3.13;61.33;100405.00;7750911;32;37952;-81
2022/12/02 02:54:58;;;;;;;38.53;18.52;;;;;;;2.84;62.84;100402.72;7751707;32;37592;-82
2022/12/02 02:59:15;;;;;;;29.85;18.52;;;;;;;3.23;61.35;100393.81;7764995;32;39345;-81
2022/12/02 03:03:42;;;;;;;32.67;18.48;;;;;;;3.26;61.26;100390.69;7764981;32;39856;-81
2022/12/02 03:07:59;;;;;;;35.00;19.35;;;;;;;3.20;61.40;100392.34;7764993;32;38084;-81
2022/12/02 03:12:15;;;;;;;38.53;20.85;;;;;;;3.03;61.69;100396.50;7764999;32;38061;-81
2022/12/02 03:16:32;;;;;;;32.58;18.10;;;;;;;3.11;61.70;100392.78;7764536;32;40240;-81
2022/12/02 03:20:48;;;;;;;33.45;18.27;;;;;;;3.22;61.26;100400.22;7764337;32;39854;-81
2022/12/02 03:25:05;;;;;;;36.55;18.73;;;;;;;3.37;60.92;100395.44;7750630;32;37959;-81
2022/12/02 03:29:22;;;;;;;33.75;18.15;;;;;;;2.92;62.40;100408.72;7751007;32;37852;-81
2022/12/02 03:33:39;;;;;;;30.33;17.98;;;;;;;2.91;62.61;100406.25;7750926;32;40036;-81
2022/12/02 03:37:56;;;;;;;36.33;17.60;;;;;;;3.32;61.49;100392.53;7750820;32;39956;-81
2022/12/02 03:42:13;;;;;;;34.38;18.15;;;;;;;2.53;64.36;100410.31;7763715;32;38532;-81
2022/12/02 03:46:30;;;;;;;30.80;17.25;;;;;;;2.93;63.33;100394.25;7764285;32;37305;-81
2022/12/02 03:50:46;;;;;;;32.38;17.73;;;;;;;2.67;63.55;100395.03;7750604;32;40141;-81
2022/12/02 03:55:03;;;;;;;34.85;17.30;;;;;;;3.12;62.40;100387.19;7763721;32;39662;-81
2022/12/02 03:59:24;;;;;;;32.45;15.60;;;;;;;3.36;61.50;100380.31;7764125;32;38002;-82
2022/12/02 04:03:40;;;;;;;30.50;14.70;;;;;;;3.11;62.24;100379.31;7764263;32;35975;-82
2022/12/02 04:07:56;;;;;;;26.33;15.48;;;;;;;3.10;62.30;100377.62;7736259;32;40528;-82
2022/12/02 04:12:13;;;;;;;27.50;14.85;;;;;;;2.80;63.05;100389.66;7750498;32;40559;-82
2022/12/02 04:16:29;;;;;;;31.95;15.60;;;;;;;2.91;62.28;100393.59;7763741;32;37958;-81
2022/12/02 04:20:45;;;;;;;29.10;14.77;;;;;;;3.18;61.47;100382.81;7763628;32;37769;-81
2022/12/02 04:25:03;;;;;;;24.70;14.68;;;;;;;3.44;60.76;100394.62;7762901;32;39255;-81
2022/12/02 04:29:20;;;;;;;25.60;14.00;;;;;;;3.61;60.06;100392.31;7763339;32;38981;-82
2022/12/02 04:33:36;;;;;;;31.65;16.48;;;;;;;3.14;61.55;100392.34;7749483;32;37710;-81
2022/12/02 04:37:53;;;;;;;29.42;16.42;;;;;;;3.10;61.90;100399.19;7749605;32;37707;-81
2022/12/02 04:42:10;;;;;;;28.87;16.50;;;;;;;3.38;61.20;100397.09;7762960;32;39943;-81
2022/12/02 04:46:26;;;;;;;33.25;17.15;;;;;;;2.73;64.25;100409.53;7749186;32;39974;-81
2022/12/02 04:50:42;;;;;;;27.73;16.02;;;;;;;2.75;64.04;100402.09;7762989;32;38688;-81
2022/12/02 04:54:58;;;;;;;31.15;16.23;;;;;;;3.14;62.96;100395.03;7763982;32;37033;-81
2022/12/02 04:59:14;;;;;;;26.48;14.57;;;;;;;2.87;63.47;100405.81;7766201;32;38916;-82
2022/12/02 05:03:31;;;;;;;24.42;15.00;;;;;;;3.34;61.68;100393.16;7766607;32;39568;-81
2022/12/02 05:07:47;;;;;;;26.25;14.65;;;;;;;3.08;61.65;100398.59;7766810;32;38487;-82
2022/12/02 05:12:03;;;;;;;27.25;14.23;;;;;;;3.37;60.93;100395.44;7766568;32;37428;-82
2022/12/02 05:16:19;;;;;;;30.67;17.62;;;;;;;3.50;60.30;100400.00;7766407;32;40135;-81
2022/12/02 05:20:36;;;;;;;36.38;18.83;;;;;;;3.01;62.74;100403.97;7766233;32;40792;-81
2022/12/02 05:24:52;;;;;;;30.92;17.98;;;;;;;2.85;65.15;100415.97;7765944;32;38774;-80
2022/12/02 05:29:09;;;;;;;32.22;18.02;;;;;;;3.07;64.16;100418.47;7752342;32;37033;-81
2022/12/02 05:33:25;;;;;;;35.50;16.85;;;;;;;3.01;64.07;100412.88;7766196;32;39294;-81
2022/12/02 05:37:41;;;;;;;31.05;18.25;;;;;;;3.32;62.75;100397.13;7752461;32;38108;-81
2022/12/02 05:42:01;;;;;;;37.42;18.10;;;;;;;3.31;62.58;100407.06;7765522;32;38842;-81
2022/12/02 05:46:19;;;;;;;32.35;16.90;;;;;;;3.17;62.88;100410.78;7752412;32;37222;-81
2022/12/02 05:50:35;;;;;;;32.90;17.85;;;;;;;3.36;62.01;100409.97;7751791;32;39220;-81
2022/12/02 05:54:54;;;;;;;32.03;16.02;;;;;;;3.18;62.74;100412.47;7765856;32;40014;-81
2022/12/02 05:59:16;;;;;;;29.42;16.27;;;;;;;2.91;63.01;100417.00;7765909;32;36865;-81
2022/12/02 06:03:32;;;;;;;32.70;14.55;;;;;;;2.76;63.58;100420.72;7752466;32;38087;-81
2022/12/02 06:07:55;;;;;;;28.55;14.77;;;;;;;3.23;62.36;100426.16;7765850;32;39113;-81
2022/12/02 06:12:17;;;;;;;26.77;14.13;;;;;;;3.25;61.64;100418.69;7765168;32;40177;-82
2022/12/02 06:16:33;;;;;;;24.63;13.05;;;;;;;3.43;61.09;100411.81;7765526;32;38688;-81
2022/12/02 06:20:58;;;;;;;30.25;14.30;;;;;;;3.35;61.24;100421.78;7765707;32;38013;-81
2022/12/02 06:25:26;;;;;;;24.48;13.38;;;;;;;3.40;60.86;100418.47;7765329;32;39119;-81
2022/12/02 06:30:10;;;;;;;29.08;14.13;;;;;;;3.70;59.59;100418.00;7765517;32;39879;-82
2022/12/02 06:34:40;;;;;;;26.17;13.70;;;;;;;3.21;60.78;100417.44;7763218;32;37993;-82
2022/12/02 06:39:14;;;;;;;24.02;14.25;;;;;;;3.64;59.69;100433.16;7765337;32;37194;-82
2022/12/02 06:43:31;;;;;;;29.83;14.85;;;;;;;3.29;60.45;100430.69;7752561;32;39085;-81
2022/12/02 06:47:51;;;;;;;27.13;13.23;;;;;;;3.35;60.40;100437.94;7765344;32;39893;-81
2022/12/02 06:52:20;;;;;;;23.70;13.43;;;;;;;3.72;59.75;100432.91;7751359;32;38692;-82
2022/12/02 06:56:36;;;;;;;24.20;13.10;;;;;;;3.55;60.08;100437.09;7765314;32;37503;-82
2022/12/02 07:00:59;;;;;;;28.08;14.25;;;;;;;3.81;59.40;100432.69;7751354;32;40134;-82
2022/12/02 07:05:21;;;;;;;27.00;13.70;;;;;;;3.98;58.71;100431.19;7751911;32;39895;-82
2022/12/02 07:09:44;;;;;;;28.47;14.03;;;;;;;4.04;58.39;100438.44;7764996;32;38174;-81
2022/12/02 07:14:00;;;;;;;26.63;14.33;;;;;;;3.90;58.16;100437.66;7751364;32;37213;-81
2022/12/02 07:18:20;;;;;;;28.40;13.90;;;;;;;3.99;58.06;100440.13;7763955;32;40521;-82
2022/12/02 07:22:40;;;;;;;24.50;12.55;;;;;;;4.23;57.34;100441.28;7764280;32;39853;-82
2022/12/02 07:26:56;;;;;;;26.08;13.80;;;;;;;3.89;59.16;100444.06;7764546;32;37903;-82
2022/12/02 07:31:23;;;;;;;26.30;14.63;;;;;;;3.85;59.10;100452.81;7762501;32;37730;-84
2022/12/02 07:35:39;;;;;;;24.75;13.85;;;;;;;4.21;57.72;100449.59;7750686;32;39337;-83
2022/12/02 07:39:55;;;;;;;34.40;15.20;;;;;;;3.91;58.37;100449.25;7764280;32;40089;-83
2022/12/02 07:44:11;;;;;;;31.25;14.50;;;;;;;4.11;58.56;100447.34;7764019;32;38103;-82
2022/12/02 07:48:27;;;;;;;27.52;14.27;;;;;;;4.28;58.11;100450.37;7764436;32;38010;-83
2022/12/02 07:52:44;;;;;;;26.92;13.60;;;;;;;4.75;56.83;100444.75;7764079;32;39275;-83
2022/12/02 07:57:00;;;;;;;23.17;13.88;;;;;;;4.26;57.53;100451.63;7763947;32;39875;-83
2022/12/02 08:01:16;;;;;;;24.30;12.25;;;;;;;4.46;57.27;100448.84;7763438;32;38845;-76
2022/12/02 08:05:35;;;;;;;31.95;13.77;;;;;;;4.98;59.48;100449.56;7763549;32;36309;-81
2022/12/02 08:09:51;;;;;;;26.15;13.45;;;;;;;4.88;56.74;100455.47;7763572;32;39002;-82
2022/12/02 08:14:07;;;;;;;23.08;12.70;;;;;;;5.25;54.33;100455.59;7763729;32;39847;-80
2022/12/02 08:18:23;;;;;;;26.90;12.52;;;;;;;5.05;55.42;100447.66;7749804;32;38005;-70
2022/12/02 08:22:39;;;;;;;27.23;12.27;;;;;;;5.56;53.62;100451.19;7763034;32;37290;-82
2022/12/02 08:26:56;;;;;;;24.83;12.63;;;;;;;4.85;55.89;100464.00;7763209;32;40075;-83
2022/12/02 08:31:12;;;;;;;25.65;13.18;;;;;;;5.33;54.64;100467.19;7765497;32;39869;-84
2022/12/02 08:35:28;;;;;;;26.87;14.02;;;;;;;5.42;54.04;100465.88;7748699;32;37558;-82
2022/12/02 08:39:44;;;;;;;27.62;14.05;;;;;;;5.61;53.65;100458.63;7748637;32;37960;-81
2022/12/02 08:44:00;;;;;;;28.02;14.05;;;;;;;5.77;52.95;100458.03;7762509;32;39821;-82
2022/12/02 08:48:17;;;;;;;25.23;13.25;;;;;;;5.89;52.92;100460.84;7750678;32;39566;-82
2022/12/02 08:52:33;;;;;;;25.80;14.23;;;;;;;5.78;53.10;100467.84;7752344;32;38732;-81
2022/12/02 08:56:50;;;;;;;25.67;13.93;;;;;;;6.07;52.27;100461.94;7766130;32;37339;-84
2022/12/02 09:01:06;;;;;;;28.77;14.13;;;;;;;5.75;52.77;100457.44;7765598;32;40045;-84
2022/12/02 09:05:22;;;;;;;30.52;14.30;;;;;;;5.80;52.95;100464.91;7751685;32;39952;-82
2022/12/02 09:09:39;;;;;;;25.85;13.77;;;;;;;5.71;53.22;100464.37;7752311;32;38687;-85
2022/12/02 09:13:55;;;;;;;26.55;14.65;;;;;;;5.92;52.89;100460.41;7766170;32;37976;-84
2022/12/02 09:18:11;;;;;;;32.35;14.10;;;;;;;5.70;52.84;100461.88;7765157;32;40097;-84
2022/12/02 09:22:29;;;;;;;27.48;14.35;;;;;;;5.91;52.75;100455.22;7765358;32;42251;-84
2022/12/02 09:26:45;;;;;;;25.00;13.77;;;;;;;5.63;53.04;100462.75;7765798;32;37997;-83
2022/12/02 09:31:01;;;;;;;25.50;14.82;;;;;;;5.40;53.72;100465.28;7764281;32;38061;-84
2022/12/02 09:35:18;;;;;;;29.25;16.15;;;;;;;5.57;53.10;100469.06;7765710;32;40001;-84
2022/12/02 09:39:34;;;;;;;28.67;15.27;;;;;;;5.75;56.24;100464.75;7751518;32;39737;-83
2022/12/02 09:43:54;;;;;;;27.10;15.00;;;;;;;6.06;53.25;100461.13;7765599;32;37854;-82
2022/12/02 09:48:11;;;;;;;27.92;16.10;;;;;;;6.09;52.53;100462.53;7765595;32;37237;-81
2022/12/02 09:52:28;;;;;;;29.12;14.82;;;;;;;6.04;52.47;100456.97;7765572;32;39923;-81
2022/12/02 09:56:45;;;;;;;27.33;15.07;;;;;;;6.35;52.01;100451.41;7764830;32;40604;-82
2022/12/02 10:01:02;;;;;;;25.75;14.73;;;;;;;5.93;52.55;100455.81;7765304;32;38008;-81
2022/12/02 10:05:23;;;;;;;28.17;14.75;;;;;;;6.07;51.85;100457.37;7764883;32;37913;-84
2022/12/02 10:09:41;;;;;;;26.37;14.73;;;;;;;5.89;52.72;100455.44;7752633;32;40192;-81
2022/12/02 10:13:58;;;;;;;25.83;14.05;;;;;;;6.34;51.62;100436.19;7765507;32;40816;-83
2022/12/02 10:18:25;;;;;;;29.42;15.77;;;;;;;6.15;51.48;100443.50;7764796;32;38721;-81
2022/12/02 10:23:05;;;;;;;31.67;18.30;;;;;;;6.35;52.07;100443.28;7765465;32;37618;-82
2022/12/02 10:27:29;;;;;;;39.45;22.27;;;;;;;6.37;51.64;100435.75;7765607;32;39472;-82
2022/12/02 10:31:57;;;;;;;38.83;23.98;;;;;;;6.13;51.42;100434.78;7752039;32;40832;-84
2022/12/02 10:36:13;;;;;;;27.17;14.65;;;;;;;6.22;51.44;100431.78;7765281;32;38878;-83
2022/12/02 10:40:29;;;;;;;28.23;14.43;;;;;;;6.35;54.47;100432.44;7765262;32;37491;-82
2022/12/02 10:44:46;;;;;;;28.85;14.45;;;;;;;6.10;51.31;100432.53;7765368;32;40156;-79
2022/12/02 10:49:34;;;;;;;27.85;14.45;;;;;;;6.22;51.66;100432.59;7764967;32;39725;-81
2022/12/02 10:53:56;;;;;;;25.90;13.77;;;;;;;6.44;50.54;100429.41;7722605;32;37901;-81
2022/12/02 10:58:15;;;;;;;24.95;13.62;;;;;;;6.54;50.19;100427.00;7751316;32;37274;-81
2022/12/02 11:02:37;;;;;;;26.67;13.95;;;;;;;6.40;50.46;100434.47;7764890;32;40242;-79
2022/12/02 11:06:53;;;;;;;27.62;14.52;;;;;;;6.48;50.55;100430.59;7751343;32;40878;-82
2022/12/02 11:11:15;;;;;;;31.05;14.95;;;;;;;6.49;50.36;100424.97;7751249;32;36947;-80
2022/12/02 11:15:44;;;;;;;27.33;14.80;;;;;;;6.56;50.06;100427.59;7764980;32;37654;-80
2022/12/02 11:20:29;;;;;;;26.77;13.73;;;;;;;6.19;50.62;100417.66;7764981;32;39199;-82
2022/12/02 11:27:02;;;;;;;26.60;13.40;;;;;;;6.53;49.53;100409.87;7889728;31;208745;-81
2022/12/02 11:31:22;;;;;;;29.48;13.45;;;;;;;6.22;51.02;100410.94;7867421;31;40551;-81
2022/12/02 11:36:12;;;;;;;24.75;13.02;;;;;;;6.35;49.97;100409.97;7867712;31;37768;-81
2022/12/02 11:40:31;;;;;;;25.95;13.13;;;;;;;6.34;49.73;100409.09;7867570;31;37184;-81
2022/12/02 11:44:47;;;;;;;27.17;13.77;;;;;;;6.26;50.06;100414.88;7866295;31;39848;-82
2022/12/02 11:49:19;;;;;;;27.27;13.75;;;;;;;6.21;50.44;100417.44;7867566;31;40950;-81
2022/12/02 11:53:36;;;;;;;28.92;13.68;;;;;;;6.22;50.45;100416.34;7866187;31;37896;-81
2022/12/02 11:57:55;;;;;;;26.55;14.43;;;;;;;6.21;50.59;100409.31;7867281;31;37079;-80
2022/12/02 12:02:20;;;;;;;28.20;14.52;;;;;;;6.03;51.05;100407.41;7867018;31;39772;-80
2022/12/02 12:06:51;;;;;;;25.12;13.75;;;;;;;6.36;49.78;100404.31;7866920;31;39961;-81
2022/12/02 12:11:24;;;;;;;24.92;12.93;;;;;;;6.41;49.99;100408.22;7867349;31;38897;-81
2022/12/02 12:16:00;;;;;;;29.80;13.95;;;;;;;6.52;50.14;100400.13;7867164;31;37814;-81
2022/12/02 12:20:16;;;;;;;26.87;14.20;;;;;;;6.46;50.04;100400.22;7887572;31;39164;-82
2022/12/02 12:24:34;;;;;;;28.10;13.57;;;;;;;6.52;49.47;100408.25;7891257;31;39979;-78
2022/12/02 12:28:51;;;;;;;24.05;13.05;;;;;;;6.70;49.09;100396.53;7892490;31;38537;-82
2022/12/02 12:33:09;;;;;;;25.98;13.55;;;;;;;6.70;49.29;100407.38;7893716;31;36078;-80
2022/12/02 12:37:25;;;;;;;25.90;13.50;;;;;;;6.25;50.55;100404.25;7879397;31;38817;-81
2022/12/02 12:41:41;;;;;;;24.65;13.07;;;;;;;6.20;50.78;100402.22;7876139;31;39910;-81
2022/12/02 12:46:17;;;;;;;28.20;14.48;;;;;;;5.90;51.37;100397.56;7875361;31;38105;-80
2022/12/02 12:50:33;;;;;;;25.37;14.30;;;;;;;6.25;50.12;100398.84;7875021;31;37079;-82
2022/12/02 12:54:49;;;;;;;27.15;14.05;;;;;;;6.16;50.46;100401.03;7875803;31;39243;-82
2022/12/02 12:59:06;;;;;;;29.65;14.18;;;;;;;6.36;50.04;100396.19;7875860;31;40754;-85
2022/12/02 13:03:24;;;;;;;22.87;11.88;;;;;;;6.37;53.92;100397.81;7875713;31;36875;-86
2022/12/02 13:07:41;;;;;;;25.17;13.50;;;;;;;6.74;53.73;100403.16;7874658;31;37806;-85
2022/12/02 13:15:52;;;;;;;25.85;13.07;;;;;;;6.33;52.59;100407.47;7886987;31;309394;-84
2022/12/02 13:20:09;;;;;;;23.75;13.25;;;;;;;6.33;52.59;100407.47;7866481;31;40543;-83
2022/12/02 13:59:58;;;;;;;25.65;13.38;;;;;;;2.90;65.36;100436.87;7822738;31;126840;-85
2022/12/02 14:04:14;;;;;;;31.50;14.70;;;;;;;4.38;60.43;100425.62;7793030;32;40687;-86
2022/12/02 14:08:31;;;;;;;26.45;14.25;;;;;;;5.19;57.11;100437.59;7781955;32;37752;-86
2022/12/02 14:12:47;;;;;;;24.85;12.93;;;;;;;5.72;55.17;100427.31;7807944;32;37512;-86
2022/12/02 14:17:04;;;;;;;24.63;13.10;;;;;;;6.00;55.26;100441.19;7794783;32;40256;-86
2022/12/02 14:21:20;;;;;;;23.10;12.68;;;;;;;6.01;54.46;100423.87;7784970;32;40055;-86
2022/12/02 14:25:37;;;;;;;22.70;12.68;;;;;;;6.28;53.42;100437.13;7770786;32;37747;-86
2022/12/02 14:29:53;;;;;;;26.00;12.43;;;;;;;5.77;54.40;100435.59;7784971;32;37149;-86
2022/12/02 14:34:09;;;;;;;26.10;13.90;;;;;;;6.30;53.14;100440.41;7804443;32;39670;-84
2022/12/02 14:38:28;;;;;;;22.08;12.55;;;;;;;6.37;52.95;100430.31;7810869;32;40333;-85
2022/12/02 14:42:44;;;;;;;25.62;14.18;;;;;;;6.57;52.67;100435.50;7803216;32;38751;-87
2022/12/02 14:47:00;;;;;;;26.77;13.95;;;;;;;6.49;53.71;100432.28;7784206;32;37070;-85
2022/12/02 14:51:16;;;;;;;26.85;14.73;;;;;;;6.21;54.24;100430.97;7784636;32;39900;-86
2022/12/02 14:55:32;;;;;;;27.58;14.60;;;;;;;6.48;53.61;100438.72;7784314;32;39831;-85
2022/12/02 14:59:49;;;;;;;34.25;15.68;;;;;;;6.19;54.78;100442.03;7783819;32;38539;-85
2022/12/02 15:04:07;;;;;;;26.25;15.02;;;;;;;6.25;54.94;100440.28;7779344;32;36912;-84
2022/12/02 15:08:23;;;;;;;27.00;15.45;;;;;;;6.46;54.02;100449.78;7778571;32;38349;-84
2022/12/02 15:12:39;;;;;;;30.10;16.65;;;;;;;6.18;54.38;100442.25;7752659;32;39875;-85
2022/12/02 15:16:55;;;;;;;27.60;14.87;;;;;;;6.16;55.01;100438.94;7765029;32;38018;-86
2022/12/02 15:21:11;;;;;;;26.45;14.98;;;;;;;5.88;55.48;100452.94;7766146;32;38001;-85
2022/12/02 15:25:28;;;;;;;28.83;15.57;;;;;;;6.01;55.56;100448.25;7766277;32;39948;-86
2022/12/02 15:29:44;;;;;;;26.05;14.23;;;;;;;5.94;55.06;100449.34;7752191;32;39855;-86
2022/12/02 15:34:01;;;;;;;22.42;12.85;;;;;;;6.23;54.25;100455.06;7766025;32;37990;-85
2022/12/02 15:38:17;;;;;;;29.52;15.52;;;;;;;5.96;55.21;100461.63;7752943;32;37876;-84
2022/12/02 15:42:33;;;;;;;29.02;15.35;;;;;;;5.97;54.77;100465.19;7765928;32;39306;-86
2022/12/02 15:46:49;;;;;;;27.10;14.50;;;;;;;6.08;54.84;100475.25;7765980;32;40030;-85
2022/12/02 15:51:08;;;;;;;28.45;15.55;;;;;;;6.01;55.39;100469.91;7765915;32;37818;-86
2022/12/02 15:55:24;;;;;;;26.27;14.90;;;;;;;6.07;55.40;100467.34;7768656;32;37833;-86
2022/12/02 15:59:40;;;;;;;23.83;13.70;;;;;;;6.01;55.75;100464.47;7792508;32;39137;-84
2022/12/02 16:03:57;;;;;;;25.05;14.63;;;;;;;5.94;55.94;100479.12;7792833;32;39977;-84
2022/12/02 16:08:13;;;;;;;24.42;14.52;;;;;;;5.86;56.60;100491.06;7789066;32;37998;-84
2022/12/02 16:12:30;;;;;;;32.85;14.95;;;;;;;5.61;57.89;100491.91;7788259;32;37964;-87
2022/12/02 16:16:46;;;;;;;25.33;15.15;;;;;;;5.41;58.84;100497.47;7788002;32;38726;-84
2022/12/02 16:21:02;;;;;;;28.10;15.30;;;;;;;5.67;58.09;100492.09;7764498;32;40756;-84
2022/12/02 16:25:18;;;;;;;36.58;17.08;;;;;;;5.40;58.86;100495.84;7775401;32;38778;-86
2022/12/02 16:29:37;;;;;;;27.62;15.25;;;;;;;5.43;58.85;100505.37;7792635;32;37710;-85
2022/12/02 16:33:53;;;;;;;31.48;17.35;;;;;;;5.75;58.02;100499.91;7778403;32;39660;-84
2022/12/02 16:38:10;;;;;;;30.83;15.63;;;;;;;5.70;58.34;100505.16;7776974;32;39927;-85
2022/12/02 16:42:26;;;;;;;32.50;17.15;;;;;;;5.61;58.87;100501.91;7764075;32;37951;-85
2022/12/02 16:46:44;;;;;;;31.80;15.38;;;;;;;5.70;58.29;100505.16;7764374;32;37852;-84
2022/12/02 16:51:00;;;;;;;31.95;15.60;;;;;;;5.64;58.42;100507.72;7766556;32;39257;-85
2022/12/02 16:55:16;;;;;;;30.88;17.08;;;;;;;5.52;59.16;100512.19;7765309;32;40744;-84
2022/12/02 16:59:33;;;;;;;30.65;16.83;;;;;;;5.46;59.53;100511.19;7774315;32;38686;-85
2022/12/02 17:03:49;;;;;;;36.03;17.92;;;;;;;5.39;59.42;100513.09;7778692;32;36803;-85
2022/12/02 17:08:05;;;;;;;34.83;17.87;;;;;;;5.60;58.97;100517.31;7792229;32;39103;-85
2022/12/02 17:12:21;;;;;;;35.08;17.62;;;;;;;5.44;59.30;100520.56;7790506;32;40018;-84
2022/12/02 17:16:38;;;;;;;40.60;19.58;;;;;;;5.46;59.50;100515.75;7788763;32;38819;-85
2022/12/02 17:20:54;;;;;;;38.35;18.12;;;;;;;5.50;59.22;100521.56;7768861;32;36866;-85
2022/12/02 17:25:11;;;;;;;38.53;19.73;;;;;;;5.30;60.01;100527.12;7772364;32;39930;-84
2022/12/02 17:29:28;;;;;;;40.55;18.80;;;;;;;5.03;61.10;100532.69;7772586;32;39878;-85
2022/12/02 17:33:44;;;;;;;38.10;18.98;;;;;;;5.23;60.94;100532.59;7764006;32;37880;-84
2022/12/02 17:38:00;;;;;;;34.28;18.90;;;;;;;5.29;60.25;100530.88;7764437;32;37797;-85
2022/12/02 17:42:17;;;;;;;38.67;18.00;;;;;;;5.38;60.22;100527.69;7750471;32;39800;-85
2022/12/02 17:46:34;;;;;;;34.72;19.45;;;;;;;5.40;60.32;100536.41;7787209;32;39695;-85
2022/12/02 17:50:50;;;;;;;37.75;19.80;;;;;;;5.29;60.63;100542.50;7777225;32;37903;-86
2022/12/02 17:55:07;;;;;;;33.15;17.30;;;;;;;4.94;61.68;100542.13;7791189;32;37272;-86
2022/12/02 17:59:25;;;;;;;41.15;19.55;;;;;;;4.96;61.87;100548.13;7791012;32;39332;-86
2022/12/02 18:03:41;;;;;;;40.00;19.80;;;;;;;4.83;61.92;100549.84;7780353;32;39960;-85
2022/12/02 18:07:59;;;;;;;36.53;18.37;;;;;;;4.93;61.88;100549.37;7764439;32;37972;-86
2022/12/02 18:12:16;;;;;;;33.33;17.95;;;;;;;4.87;62.08;100548.38;7790644;32;36092;-86
2022/12/02 18:16:32;;;;;;;38.08;19.98;;;;;;;5.01;61.87;100543.72;7790490;32;39796;-86
2022/12/02 18:20:48;;;;;;;34.38;19.08;;;;;;;4.77;62.98;100547.19;7780322;32;39846;-84
2022/12/02 18:25:05;;;;;;;37.88;19.58;;;;;;;4.97;62.45;100549.78;7762981;32;37983;-84
2022/12/02 18:29:21;;;;;;;39.75;20.70;;;;;;;5.21;61.65;100543.62;7763016;32;37639;-83
2022/12/02 18:33:37;;;;;;;39.60;19.87;;;;;;;5.24;61.64;100539.63;7762871;32;38753;-84
2022/12/02 18:37:53;;;;;;;44.35;21.12;;;;;;;5.14;61.85;100536.56;7762543;32;40854;-85
2022/12/02 18:42:09;;;;;;;39.15;21.85;;;;;;;5.15;61.84;100532.84;7762514;32;37955;-85
2022/12/02 18:46:26;;;;;;;42.88;22.15;;;;;;;5.22;61.56;100544.44;7775434;32;37069;-85
2022/12/02 18:50:42;;;;;;;46.45;24.73;;;;;;;5.06;62.30;100538.50;7779622;32;40013;-85
2022/12/02 18:54:59;;;;;;;44.63;22.15;;;;;;;4.87;62.76;100545.66;7793456;32;39660;-85
2022/12/02 18:59:17;;;;;;;43.50;23.20;;;;;;;4.96;62.62;100538.13;7791703;32;37674;-86
2022/12/02 19:03:35;;;;;;;45.03;22.20;;;;;;;4.91;62.40;100540.66;7784478;32;37162;-85
2022/12/02 19:07:51;;;;;;;42.47;21.95;;;;;;;5.33;61.40;100542.91;7776509;32;39157;-86
2022/12/02 19:12:08;;;;;;;45.10;23.12;;;;;;;5.02;62.14;100531.06;7765308;32;39121;-85
2022/12/02 19:16:24;;;;;;;48.03;23.85;;;;;;;5.15;61.63;100535.53;7764247;32;38104;-86
2022/12/02 19:20:41;;;;;;;45.30;23.75;;;;;;;5.18;61.83;100541.34;7763476;32;36817;-85
2022/12/02 19:24:57;;;;;;;40.42;22.70;;;;;;;4.86;62.76;100541.31;7765108;32;39702;-85
2022/12/02 19:29:13;;;;;;;48.83;23.02;;;;;;;5.17;61.84;100538.84;7780852;32;40689;-86
2022/12/02 19:33:29;;;;;;;44.97;23.35;;;;;;;5.19;61.98;100532.19;7792335;32;38007;-85
2022/12/02 19:37:46;;;;;;;45.22;24.42;;;;;;;4.96;62.46;100542.72;7791296;32;37203;-85
2022/12/02 19:42:02;;;;;;;47.28;24.35;;;;;;;5.12;61.93;100547.59;7790855;32;39840;-86
2022/12/02 19:46:18;;;;;;;47.40;25.33;;;;;;;5.02;62.09;100552.69;7765433;32;40872;-85
2022/12/02 19:50:35;;;;;;;44.10;22.98;;;;;;;5.16;61.88;100551.53;7764605;32;38369;-85
2022/12/02 19:54:51;;;;;;;46.20;22.35;;;;;;;4.56;63.65;100559.13;7765480;32;37714;-86
2022/12/02 19:59:07;;;;;;;48.25;23.87;;;;;;;4.62;63.60;100552.84;7776881;32;39080;-85
2022/12/02 20:03:23;;;;;;;46.15;23.52;;;;;;;4.92;62.81;100549.63;7780175;32;40161;-86
2022/12/02 20:07:40;;;;;;;45.83;23.08;;;;;;;4.99;62.66;100542.28;7764483;32;38774;-86
2022/12/02 20:11:57;;;;;;;39.90;21.33;;;;;;;4.85;63.14;100546.94;7765029;32;37630;-86
2022/12/02 20:16:15;;;;;;;45.53;23.12;;;;;;;5.19;62.24;100540.31;7765194;32;39254;-85
2022/12/02 20:20:31;;;;;;;43.95;22.40;;;;;;;5.09;62.86;100542.66;7764387;32;40531;-84
2022/12/02 20:24:47;;;;;;;45.05;21.62;;;;;;;5.09;62.44;100539.94;7765072;32;38702;-86
2022/12/02 20:29:04;;;;;;;46.20;20.75;;;;;;;5.03;62.34;100547.03;7764737;32;37045;-85